Рассадник сумчатой русофобии - AntonTsAU (antontsau) wrote,
Рассадник сумчатой русофобии - AntonTsAU
antontsau

Categories:

Лето включили!

Причем сразу так, чтоб никто не ушел живым.

TAF YSBK 272259Z 2800/2812
32012KT CAVOK
RMK T 35 40 39 33 Q 1008 1006 1004 1005

METAR YSBK 272300Z AUTO 33007KT 9999 // NCD 33/17 Q1008 RMK
RF00.0/000.0

То есть уже 33 (в 10 утра) а будет 40. Аж самалет не летаит, инструктор сказал что это гемор и борьба со стихией получится а не учебное летание, жара и неприятный ветрильник на западе за горами, так что на сегодня все отменили. Скукотышшша, пойду-ка я с котом дальше спать. Он уже.


Tags: Сидней, а как тот мамонт летает, лытдыбр, природное
Subscribe

  • Post a new comment

    Error

    Anonymous comments are disabled in this journal

    default userpic

    Your reply will be screened

    Your IP address will be recorded 

  • 32 comments